createdAt,value
2018-09-13T00:01:40.128Z,1.87
2018-09-13T00:04:08.707Z,2.10
2018-09-13T00:06:37.500Z,2.05
2018-09-13T00:09:08.105Z,1.80
2018-09-13T00:11:36.856Z,1.80
2018-09-13T00:14:05.595Z,1.85
2018-09-13T00:16:34.531Z,1.80
2018-09-13T00:19:03.267Z,1.90
2018-09-13T00:21:31.906Z,2.00
2018-09-13T00:24:00.521Z,1.80
2018-09-13T00:26:29.529Z,1.98
2018-09-13T00:28:58.341Z,1.87
2018-09-13T00:31:28.540Z,1.98
2018-09-13T00:33:58.315Z,1.77
2018-09-13T00:36:27.036Z,1.85
2018-09-13T00:38:55.578Z,2.10
2018-09-13T00:41:24.109Z,2.00
2018-09-13T00:43:54.578Z,1.95
2018-09-13T00:46:27.305Z,1.82
2018-09-13T00:48:57.882Z,1.90
2018-09-13T00:51:27.237Z,2.20
2018-09-13T00:53:57.819Z,2.02
2018-09-13T00:56:29.116Z,2.45
2018-09-13T00:59:00.613Z,1.98
2018-09-13T01:01:32.023Z,1.55
2018-09-13T01:04:00.635Z,1.60
2018-09-13T01:06:29.303Z,2.25
2018-09-13T01:08:57.886Z,2.35
2018-09-13T01:11:26.603Z,2.17
2018-09-13T01:13:55.311Z,2.00
2018-09-13T01:16:23.975Z,2.22
2018-09-13T01:18:52.754Z,2.05
2018-09-13T01:21:21.265Z,2.15
2018-09-13T01:23:50.249Z,2.40
2018-09-13T01:26:18.776Z,2.30
2018-09-13T01:28:47.383Z,2.22
2018-09-13T01:31:15.986Z,2.12
2018-09-13T01:33:44.461Z,1.98
2018-09-13T01:36:13.027Z,1.98
2018-09-13T01:38:46.667Z,2.25
2018-09-13T01:41:15.192Z,2.55
2018-09-13T01:43:43.861Z,2.10
2018-09-13T01:46:12.511Z,1.98
2018-09-13T01:48:41.276Z,2.17
2018-09-13T01:51:09.773Z,2.08
2018-09-13T01:53:38.580Z,2.30
2018-09-13T01:56:07.121Z,2.22
2018-09-13T01:58:35.625Z,1.90
2018-09-13T02:01:04.160Z,2.30
2018-09-13T02:03:32.607Z,1.90
2018-09-13T02:06:01.381Z,2.10
2018-09-13T02:08:29.800Z,2.20
2018-09-13T02:10:58.235Z,2.20
2018-09-13T02:13:29.729Z,2.37
2018-09-13T02:15:58.314Z,1.87
2018-09-13T02:18:26.865Z,2.20
2018-09-13T02:20:55.429Z,2.02
2018-09-13T02:23:24.166Z,2.20
2018-09-13T02:25:53.065Z,1.87
2018-09-13T02:28:21.917Z,2.00
2018-09-13T02:30:50.468Z,2.45
2018-09-13T02:33:19.071Z,1.98
2018-09-13T02:35:47.761Z,2.10
2018-09-13T02:38:21.299Z,2.00
2018-09-13T02:40:49.902Z,1.95
2018-09-13T02:43:18.468Z,2.02
2018-09-13T02:45:47.185Z,2.30
2018-09-13T02:48:15.795Z,1.82
2018-09-13T02:50:44.519Z,2.35
2018-09-13T02:53:13.117Z,2.20
2018-09-13T02:55:41.843Z,1.90
2018-09-13T02:58:24.025Z,2.12
2018-09-13T03:00:52.504Z,2.27
2018-09-13T03:03:21.591Z,2.15
2018-09-13T03:05:50.156Z,2.08
2018-09-13T03:08:23.787Z,2.08
2018-09-13T03:10:52.302Z,3.70
2018-09-13T03:13:20.874Z,2.55
2018-09-13T03:15:49.432Z,4.35
2018-09-13T03:18:18.091Z,2.80
2018-09-13T03:20:46.849Z,2.00
2018-09-13T03:23:15.386Z,2.20
2018-09-13T03:25:43.956Z,2.30
2018-09-13T03:28:35.127Z,2.08
2018-09-13T03:31:03.738Z,2.17
2018-09-13T03:33:32.316Z,1.90
2018-09-13T03:36:01.093Z,2.65
2018-09-13T03:38:29.627Z,2.30
2018-09-13T03:40:58.446Z,2.20
2018-09-13T03:43:27.143Z,1.98
2018-09-13T03:45:55.750Z,1.90
2018-09-13T03:48:24.309Z,2.12
2018-09-13T03:50:52.917Z,2.20
2018-09-13T03:53:21.372Z,2.10
2018-09-13T03:55:50.036Z,2.12
2018-09-13T03:58:23.678Z,2.22
2018-09-13T04:00:52.494Z,1.82
2018-09-13T04:03:21.122Z,2.20
2018-09-13T04:05:49.745Z,2.42
2018-09-13T04:08:18.362Z,2.52
2018-09-13T04:10:47.154Z,2.00
2018-09-13T04:13:18.948Z,2.10
2018-09-13T04:15:47.719Z,2.00
2018-09-13T04:18:20.241Z,2.02
2018-09-13T04:21:01.617Z,1.77
2018-09-13T04:23:40.354Z,1.98
2018-09-13T04:26:08.982Z,1.90
2018-09-13T04:28:46.899Z,2.05
2018-09-13T04:31:15.786Z,1.80
2018-09-13T04:33:44.474Z,1.80
2018-09-13T04:36:13.355Z,2.60
2018-09-13T04:38:41.930Z,2.02
2018-09-13T04:41:10.668Z,2.12
2018-09-13T04:43:39.408Z,2.08
2018-09-13T04:46:08.140Z,2.08
2018-09-13T04:48:36.739Z,2.52
2018-09-13T04:51:05.344Z,2.27
2018-09-13T04:53:34.035Z,2.70
2018-09-13T04:56:02.614Z,2.20
2018-09-13T04:58:31.672Z,2.30
2018-09-13T05:01:00.211Z,3.65
2018-09-13T05:03:28.847Z,2.40
2018-09-13T05:05:57.379Z,2.87
2018-09-13T05:08:26.239Z,2.60
2018-09-13T05:10:54.856Z,2.47
2018-09-13T05:13:23.337Z,2.10
2018-09-13T05:15:51.978Z,2.37
2018-09-13T05:18:20.434Z,3.10
2018-09-13T05:20:48.970Z,3.40
2018-09-13T05:23:17.446Z,2.83
2018-09-13T05:25:46.005Z,2.87
2018-09-13T05:28:14.696Z,2.27
2018-09-13T05:30:43.580Z,2.30
2018-09-13T05:33:12.233Z,2.55
2018-09-13T05:35:40.695Z,2.35
2018-09-13T05:38:09.278Z,2.33
2018-09-13T05:40:37.899Z,2.67
2018-09-13T05:43:07.365Z,2.20
2018-09-13T05:45:36.439Z,2.77
2018-09-13T05:48:05.024Z,2.90
2018-09-13T05:50:34.854Z,2.47
2018-09-13T05:53:03.830Z,2.40
2018-09-13T05:55:32.420Z,2.60
2018-09-13T05:58:00.984Z,2.55
2018-09-13T06:00:34.248Z,2.40
2018-09-13T06:03:02.692Z,2.52
2018-09-13T06:05:31.174Z,2.58
2018-09-13T06:07:59.741Z,2.50
2018-09-13T06:10:28.270Z,2.47
2018-09-13T06:12:56.818Z,2.80
2018-09-13T06:15:25.336Z,2.87
2018-09-13T06:17:59.071Z,2.70
2018-09-13T06:20:32.609Z,2.80
2018-09-13T06:23:01.890Z,2.65
2018-09-13T06:25:30.647Z,2.75
2018-09-13T06:27:59.192Z,3.10
2018-09-13T06:30:28.540Z,2.62
2018-09-13T06:33:01.628Z,2.87
2018-09-13T06:35:30.280Z,2.87
2018-09-13T06:37:59.792Z,2.80
2018-09-13T06:40:28.484Z,2.42
2018-09-13T06:42:56.883Z,2.42
2018-09-13T06:45:25.447Z,2.80
2018-09-13T06:47:54.061Z,2.80
2018-09-13T06:50:22.561Z,2.62
2018-09-13T06:52:51.193Z,2.42
2018-09-13T06:55:19.703Z,2.45
2018-09-13T06:57:48.379Z,2.92
2018-09-13T07:00:17.288Z,2.55
2018-09-13T07:02:45.801Z,2.33
2018-09-13T07:05:14.306Z,2.60
2018-09-13T07:07:42.821Z,2.92
2018-09-13T07:10:11.641Z,2.87
2018-09-13T07:12:40.116Z,2.87
2018-09-13T07:15:08.803Z,2.50
2018-09-13T07:17:37.307Z,3.02
2018-09-13T07:20:06.608Z,2.47
2018-09-13T07:22:35.652Z,3.17
2018-09-13T07:25:04.906Z,3.20
2018-09-13T07:27:33.518Z,2.72
2018-09-13T07:30:02.160Z,3.02
2018-09-13T07:32:30.742Z,3.52
2018-09-13T07:34:59.362Z,2.95
2018-09-13T07:37:28.096Z,3.05
2018-09-13T07:40:01.786Z,2.92
2018-09-13T07:42:33.126Z,2.87
2018-09-13T07:45:01.790Z,2.92
2018-09-13T07:47:32.580Z,2.55
2018-09-13T07:50:01.346Z,2.70
2018-09-13T07:52:29.924Z,2.55
2018-09-13T07:54:58.576Z,2.87
2018-09-13T07:57:27.286Z,2.62
2018-09-13T07:59:55.797Z,2.55
2018-09-13T08:02:24.613Z,3.30
2018-09-13T08:04:53.280Z,2.92
2018-09-13T08:07:22.272Z,2.83
2018-09-13T08:09:50.954Z,2.87
2018-09-13T08:12:19.600Z,2.83
2018-09-13T08:14:49.494Z,3.17
2018-09-13T08:17:17.944Z,3.15
2018-09-13T08:19:46.557Z,3.02
2018-09-13T08:22:15.696Z,3.08
2018-09-13T08:24:44.241Z,3.15
2018-09-13T08:27:12.713Z,3.17
2018-09-13T08:29:41.288Z,3.17
2018-09-13T08:32:10.220Z,3.30
2018-09-13T08:34:38.961Z,3.25
2018-09-13T08:37:07.555Z,2.83
2018-09-13T08:39:36.090Z,3.67
2018-09-13T08:42:05.556Z,4.00
2018-09-13T08:44:34.088Z,3.62
2018-09-13T08:47:02.595Z,3.75
2018-09-13T08:49:31.401Z,3.87
2018-09-13T08:51:59.991Z,3.50
2018-09-13T08:54:28.508Z,3.50
2018-09-13T08:56:57.111Z,3.87
2018-09-13T08:59:25.847Z,3.42
2018-09-13T09:01:54.387Z,3.83
2018-09-13T09:04:23.012Z,3.50
2018-09-13T09:06:51.782Z,3.37
2018-09-13T09:09:20.304Z,4.10
2018-09-13T09:11:48.880Z,3.80
2018-09-13T09:14:17.389Z,3.58
2018-09-13T09:16:45.985Z,4.15
2018-09-13T09:19:14.650Z,4.87
2018-09-13T09:21:43.282Z,4.37
2018-09-13T09:24:11.967Z,4.62
2018-09-13T09:26:40.484Z,3.90
2018-09-13T09:29:09.190Z,4.67
2018-09-13T09:31:37.675Z,4.22
2018-09-13T09:34:06.195Z,4.03
2018-09-13T09:36:34.679Z,3.90
2018-09-13T09:39:03.603Z,4.42
2018-09-13T09:41:34.022Z,4.05
2018-09-13T09:44:02.750Z,3.55
2018-09-13T09:46:31.368Z,4.42
2018-09-13T09:48:59.977Z,3.62
2018-09-13T09:51:28.884Z,4.10
2018-09-13T09:53:57.478Z,4.60
2018-09-13T09:56:26.346Z,3.92
2018-09-13T09:59:04.453Z,4.87
2018-09-13T10:01:36.521Z,4.80
2018-09-13T10:04:05.576Z,4.80
2018-09-13T10:06:34.494Z,4.87
2018-09-13T10:09:03.280Z,4.72
2018-09-13T10:11:32.017Z,5.15
2018-09-13T10:14:00.885Z,5.00
2018-09-13T10:16:34.670Z,5.05
2018-09-13T10:21:13.744Z,4.65
2018-09-13T10:23:47.607Z,4.75
2018-09-13T10:26:21.291Z,4.85
2018-09-13T10:28:55.060Z,4.87
2018-09-13T10:31:30.211Z,4.83
2018-09-13T10:36:06.593Z,5.00
2018-09-13T10:38:44.774Z,6.12
2018-09-13T10:41:19.146Z,6.78
2018-09-13T10:43:52.902Z,5.00
2018-09-13T10:46:25.452Z,5.12
2018-09-13T10:48:59.403Z,4.55
2018-09-13T10:51:33.260Z,4.72
2018-09-13T10:54:11.337Z,6.05
2018-09-13T10:56:40.496Z,5.42
2018-09-13T10:59:10.011Z,4.87
2018-09-13T11:01:39.365Z,5.50
2018-09-13T11:04:09.551Z,5.50
2018-09-13T11:06:38.048Z,6.28
2018-09-13T11:09:07.528Z,6.37
2018-09-13T11:11:36.182Z,6.25
2018-09-13T11:14:15.301Z,6.20
2018-09-13T11:16:51.061Z,6.37
2018-09-13T11:19:19.974Z,5.85
2018-09-13T11:21:48.589Z,5.72
2018-09-13T11:24:17.063Z,6.58
2018-09-13T11:26:45.684Z,5.30
2018-09-13T11:29:14.222Z,5.40
2018-09-13T11:31:43.012Z,5.72
2018-09-13T11:34:11.595Z,5.87
2018-09-13T11:36:40.146Z,5.90
2018-09-13T11:39:11.097Z,6.08
2018-09-13T11:41:39.923Z,6.12
2018-09-13T11:44:09.316Z,7.90
2018-09-13T11:46:38.158Z,6.80
2018-09-13T11:49:06.840Z,6.60
2018-09-13T11:51:35.695Z,6.58
2018-09-13T11:54:04.582Z,7.25
2018-09-13T11:56:33.200Z,7.30
2018-09-13T11:59:02.001Z,7.78
2018-09-13T12:01:30.816Z,8.45
2018-09-13T12:03:59.274Z,7.95
2018-09-13T12:06:27.875Z,9.38
2018-09-13T12:08:56.498Z,8.28
2018-09-13T12:11:25.083Z,8.53
2018-09-13T12:13:54.045Z,9.70
2018-09-13T12:16:22.795Z,8.60
2018-09-13T12:18:51.556Z,7.72
2018-09-13T12:21:20.220Z,8.33
2018-09-13T12:23:48.906Z,8.30
2018-09-13T12:26:17.466Z,8.05
2018-09-13T12:28:46.023Z,7.12
2018-09-13T12:31:14.869Z,6.92
2018-09-13T12:33:43.597Z,7.45
2018-09-13T12:36:12.166Z,7.62
2018-09-13T12:38:40.947Z,7.10
2018-09-13T12:41:09.635Z,7.58
2018-09-13T12:43:38.231Z,7.70
2018-09-13T12:46:07.265Z,8.85
2018-09-13T12:48:49.443Z,8.53
2018-09-13T12:51:17.905Z,7.58
2018-09-13T12:53:47.974Z,7.30
2018-09-13T12:56:16.625Z,6.90
2018-09-13T12:58:45.400Z,7.85
2018-09-13T13:01:14.030Z,6.97
2018-09-13T13:03:42.835Z,7.15
2018-09-13T13:06:11.445Z,5.95
2018-09-13T13:08:40.062Z,5.33
2018-09-13T13:11:10.225Z,4.75
2018-09-13T13:13:39.511Z,4.12
2018-09-13T13:16:08.465Z,4.15
2018-09-13T13:18:46.594Z,4.47
2018-09-13T13:21:15.143Z,4.50
2018-09-13T13:23:44.090Z,4.97
2018-09-13T13:26:12.766Z,5.05
2018-09-13T13:28:41.357Z,4.37
2018-09-13T13:31:10.214Z,5.60
2018-09-13T13:33:38.637Z,6.08
2018-09-13T13:36:07.690Z,5.53
2018-09-13T13:38:41.433Z,5.67
2018-09-13T13:41:10.084Z,5.58
2018-09-13T13:43:38.710Z,6.15
2018-09-13T13:46:08.446Z,6.00
2018-09-13T13:48:37.158Z,5.60
2018-09-13T13:51:05.841Z,6.28
2018-09-13T13:53:34.403Z,6.97
2018-09-13T13:56:03.267Z,6.65
2018-09-13T13:58:32.077Z,6.83
2018-09-13T14:01:00.906Z,6.53
2018-09-13T14:03:29.413Z,6.12
2018-09-13T14:05:58.417Z,6.15
2018-09-13T14:08:27.206Z,7.35
2018-09-13T14:10:55.711Z,6.97
2018-09-13T14:13:24.233Z,5.60
2018-09-13T14:15:52.944Z,6.45
2018-09-13T14:18:21.513Z,6.42
2018-09-13T14:20:50.149Z,6.90
2018-09-13T14:23:18.702Z,7.20
2018-09-13T14:25:50.438Z,6.00
2018-09-13T14:28:19.043Z,5.65
2018-09-13T14:30:47.594Z,5.83
2018-09-13T14:33:16.145Z,6.10
2018-09-13T14:35:44.901Z,7.30
2018-09-13T14:38:13.375Z,6.55
2018-09-13T14:40:42.098Z,6.72
2018-09-13T14:43:10.698Z,6.50
2018-09-13T14:45:39.486Z,6.40
2018-09-13T14:48:08.082Z,6.28
2018-09-13T14:50:36.638Z,7.15
2018-09-13T14:53:05.254Z,6.85
2018-09-13T14:55:33.908Z,6.90
2018-09-13T14:58:02.802Z,7.22
2018-09-13T15:00:31.668Z,6.78
2018-09-13T15:03:00.343Z,6.28
2018-09-13T15:05:28.793Z,6.22
2018-09-13T15:08:02.376Z,6.40
2018-09-13T15:10:33.032Z,6.62
2018-09-13T15:13:01.627Z,6.42
2018-09-13T15:15:30.157Z,7.30
2018-09-13T15:17:58.833Z,8.48
2018-09-13T15:20:27.844Z,6.40
2018-09-13T15:22:56.526Z,7.92
2018-09-13T15:25:25.041Z,8.85
2018-09-13T15:27:54.053Z,8.28
2018-09-13T15:30:22.554Z,8.15
2018-09-13T15:32:51.938Z,6.70
2018-09-13T15:35:21.101Z,7.10
2018-09-13T15:37:49.935Z,7.03
2018-09-13T15:40:19.754Z,7.10
2018-09-13T15:42:48.402Z,6.67
2018-09-13T15:45:17.003Z,7.25
2018-09-13T15:47:45.551Z,6.42
2018-09-13T15:50:14.619Z,6.15
2018-09-13T15:52:43.231Z,8.20
2018-09-13T15:55:11.889Z,8.08
2018-09-13T15:57:40.503Z,7.75
2018-09-13T16:00:14.413Z,6.97
2018-09-13T16:02:43.075Z,8.03
2018-09-13T16:05:11.623Z,6.65
2018-09-13T16:07:40.293Z,6.55
2018-09-13T16:10:09.145Z,6.67
2018-09-13T16:12:38.155Z,8.03
2018-09-13T16:15:07.631Z,7.95
2018-09-13T16:17:36.305Z,8.25
2018-09-13T16:20:10.177Z,7.58
2018-09-13T16:22:38.866Z,7.53
2018-09-13T16:25:07.917Z,7.03
2018-09-13T16:27:36.859Z,7.25
2018-09-13T16:30:05.595Z,7.28
2018-09-13T16:32:34.136Z,7.42
2018-09-13T16:35:02.950Z,7.58
2018-09-13T16:37:36.664Z,7.40
2018-09-13T16:40:15.911Z,8.65
2018-09-13T16:42:53.864Z,7.97
2018-09-13T16:45:29.771Z,7.65
2018-09-13T16:47:59.889Z,7.53
2018-09-13T16:50:29.142Z,7.25
2018-09-13T16:52:57.926Z,7.35
2018-09-13T16:55:26.637Z,7.75
2018-09-13T16:58:00.423Z,7.83
2018-09-13T17:00:29.187Z,7.03
2018-09-13T17:02:57.762Z,7.60
2018-09-13T17:05:26.496Z,7.90
2018-09-13T17:07:55.109Z,6.78
2018-09-13T17:10:23.746Z,8.63
2018-09-13T17:12:52.320Z,7.78
2018-09-13T17:15:21.847Z,8.23
2018-09-13T17:17:50.501Z,8.75
2018-09-13T17:20:21.594Z,9.15
2018-09-13T17:22:50.231Z,8.20
2018-09-13T17:25:18.931Z,8.28
2018-09-13T17:27:48.674Z,7.87
2018-09-13T17:30:17.684Z,7.70
2018-09-13T17:32:46.340Z,7.05
2018-09-13T17:35:14.993Z,7.55
2018-09-13T17:37:43.696Z,8.15
2018-09-13T17:40:12.457Z,7.83
2018-09-13T17:42:41.458Z,8.85
2018-09-13T17:45:09.965Z,8.23
2018-09-13T17:47:38.738Z,8.65
2018-09-13T17:50:13.359Z,8.03
2018-09-13T17:52:42.040Z,8.45
2018-09-13T17:55:10.667Z,8.28
2018-09-13T17:57:40.796Z,8.03
2018-09-13T18:00:10.911Z,8.63
2018-09-13T18:02:39.696Z,8.48
2018-09-13T18:05:08.718Z,8.25
2018-09-13T18:07:37.294Z,8.18
2018-09-13T18:10:10.945Z,8.60
2018-09-13T18:12:39.923Z,8.75
2018-09-13T18:15:08.707Z,9.13
2018-09-13T18:17:37.231Z,8.68
2018-09-13T18:20:05.869Z,8.45
2018-09-13T18:22:35.085Z,9.38
2018-09-13T18:25:04.761Z,8.28
2018-09-13T18:27:35.252Z,8.35
2018-09-13T18:30:04.202Z,7.12
2018-09-13T18:32:32.821Z,8.08
2018-09-13T18:35:01.527Z,8.68
2018-09-13T18:37:31.181Z,7.60
2018-09-13T18:40:01.315Z,8.10
2018-09-13T18:42:29.852Z,8.65
2018-09-13T18:44:58.739Z,8.38
2018-09-13T18:47:27.624Z,10.72
2018-09-13T18:49:56.459Z,8.88
2018-09-13T18:52:26.132Z,8.08
2018-09-13T18:54:54.995Z,8.68
2018-09-13T18:57:23.866Z,8.53
2018-09-13T18:59:52.639Z,8.45
2018-09-13T19:02:21.459Z,8.50
2018-09-13T19:04:50.154Z,8.33
2018-09-13T19:07:18.655Z,9.25
2018-09-13T19:09:47.297Z,9.90
2018-09-13T19:12:15.800Z,11.73
2018-09-13T19:14:45.147Z,11.08
2018-09-13T19:17:14.395Z,11.70
2018-09-13T19:19:45.040Z,11.40
2018-09-13T19:22:13.752Z,10.38
2018-09-13T19:24:47.659Z,10.93
2018-09-13T19:27:16.602Z,10.00
2018-09-13T19:29:49.803Z,9.30
2018-09-13T19:32:22.157Z,9.45
2018-09-13T19:34:51.917Z,9.30
2018-09-13T19:37:23.362Z,9.33
2018-09-13T19:39:52.049Z,8.93
2018-09-13T19:42:21.425Z,9.00
2018-09-13T19:44:50.345Z,9.08
2018-09-13T19:47:18.931Z,9.63
2018-09-13T19:49:47.379Z,8.63
2018-09-13T19:52:16.092Z,7.70
2018-09-13T19:54:44.855Z,7.80
2018-09-13T20:00:01.268Z,10.58
2018-09-13T20:02:32.366Z,8.18
2018-09-13T20:05:00.885Z,7.45
2018-09-13T20:07:29.329Z,7.30
2018-09-13T20:09:58.116Z,6.85
2018-09-13T20:12:26.766Z,7.15
2018-09-13T20:14:55.777Z,8.15
2018-09-13T20:17:25.328Z,8.98
2018-09-13T20:19:53.937Z,7.78
2018-09-13T20:22:23.004Z,7.25
2018-09-13T20:24:51.620Z,7.33
2018-09-13T20:27:20.475Z,7.45
2018-09-13T20:29:49.091Z,6.65
2018-09-13T20:32:17.729Z,6.45
2018-09-13T20:34:46.309Z,5.97
2018-09-13T20:37:16.075Z,6.85
2018-09-13T20:39:45.185Z,6.62
2018-09-13T20:42:13.695Z,6.62
2018-09-13T20:44:42.136Z,5.95
2018-09-13T20:47:10.718Z,6.20
2018-09-13T20:49:39.190Z,6.65
2018-09-13T20:52:07.853Z,6.87
2018-09-13T20:54:36.484Z,6.30
2018-09-13T20:57:06.859Z,6.42
2018-09-13T20:59:37.495Z,6.28
2018-09-13T21:02:10.869Z,6.22
2018-09-13T21:04:41.520Z,5.80
2018-09-13T21:07:14.075Z,5.75
2018-09-13T21:09:42.763Z,5.40
2018-09-13T21:12:11.569Z,5.10
2018-09-13T21:14:40.671Z,4.55
2018-09-13T21:17:09.277Z,4.35
2018-09-13T21:19:37.909Z,3.85
2018-09-13T21:22:06.429Z,4.35
2018-09-13T21:24:35.024Z,3.77
2018-09-13T21:27:03.686Z,3.72
2018-09-13T21:29:32.516Z,3.75
2018-09-13T21:32:01.077Z,3.98
2018-09-13T21:34:29.807Z,3.52
2018-09-13T21:36:58.251Z,3.77
2018-09-13T21:39:26.775Z,3.92
2018-09-13T21:41:55.274Z,3.52
2018-09-13T21:44:23.906Z,3.33
2018-09-13T21:46:52.579Z,3.50
2018-09-13T21:49:21.518Z,3.10
2018-09-13T21:51:50.588Z,3.02
2018-09-13T21:54:19.101Z,3.50
2018-09-13T21:56:48.011Z,3.30
2018-09-13T21:59:16.706Z,3.37
2018-09-13T22:01:45.367Z,3.30
2018-09-13T22:04:13.865Z,3.15
2018-09-13T22:06:42.431Z,3.10
2018-09-13T22:09:11.282Z,2.90
2018-09-13T22:11:41.288Z,3.00
2018-09-13T22:14:09.922Z,2.77
2018-09-13T22:16:38.670Z,3.00
2018-09-13T22:19:07.403Z,2.92
2018-09-13T22:21:35.934Z,2.65
2018-09-13T22:24:05.177Z,2.80
2018-09-13T22:26:34.376Z,2.90
2018-09-13T22:29:03.040Z,2.30
2018-09-13T22:31:31.898Z,2.58
2018-09-13T22:34:00.337Z,2.50
2018-09-13T22:36:28.827Z,2.20
2018-09-13T22:38:57.232Z,2.15
2018-09-13T22:41:25.776Z,2.02
2018-09-13T22:43:54.518Z,2.00
2018-09-13T22:46:24.215Z,2.05
2018-09-13T22:48:52.839Z,1.67
2018-09-13T22:51:23.119Z,2.08
2018-09-13T22:53:51.697Z,2.15
2018-09-13T22:56:20.159Z,1.90
2018-09-13T22:58:48.984Z,2.40
2018-09-13T23:01:17.446Z,2.08
2018-09-13T23:03:46.034Z,2.77
2018-09-13T23:06:14.498Z,2.58
2018-09-13T23:08:43.007Z,2.60
2018-09-13T23:11:11.882Z,2.52
2018-09-13T23:13:40.532Z,2.75
2018-09-13T23:16:09.526Z,2.67
2018-09-13T23:18:38.252Z,2.45
2018-09-13T23:21:07.170Z,2.35
2018-09-13T23:23:35.894Z,2.30
2018-09-13T23:26:04.414Z,2.50
2018-09-13T23:28:33.051Z,2.12
2018-09-13T23:31:01.525Z,2.65
2018-09-13T23:33:29.983Z,2.20
2018-09-13T23:35:58.447Z,1.82
2018-09-13T23:38:26.993Z,2.00
2018-09-13T23:40:55.611Z,1.90
2018-09-13T23:43:24.279Z,1.72
2018-09-13T23:45:52.960Z,1.70
2018-09-13T23:48:21.871Z,2.10
2018-09-13T23:50:50.352Z,1.90
2018-09-13T23:53:19.038Z,2.02
2018-09-13T23:55:47.519Z,1.67
2018-09-13T23:58:16.947Z,1.95
